Terminal Aerodrome Forecast
Issued by NWS

Home | Current Version | Previous Version | Text Only | Print | Product List | Glossary On
Versions: 1 2 3 4 5 6 7 8 9 10 11 12 13 14 15 16 17 18 19 20 21 22
000
FTUS46 KOTX 241135
TAFPUW
TAF
KPUW 241135Z 2412/2512 15013KT P6SM -RA BKN018 OVC030
      TEMPO 2416/2418 4SM RA BR BKN009 OVC015
     FM241900 22018G26KT P6SM -SHRA VCTS SCT040CB BKN060
     FM250200 24011KT P6SM VCSH SCT050 BKN150=

USA.gov is the U.S. government's official web portal to all federal, state and local government web resources and services.